createdAt,value
2022-09-17T00:00:31.697Z,10.06
2022-09-17T00:03:02.177Z,10.04
2022-09-17T00:05:31.670Z,10.09
2022-09-17T00:08:04.038Z,10.06
2022-09-17T00:10:33.446Z,10.06
2022-09-17T00:13:02.831Z,10.00
2022-09-17T00:15:32.281Z,9.99
2022-09-17T00:18:01.875Z,9.96
2022-09-17T00:20:31.731Z,9.96
2022-09-17T00:23:03.670Z,10.02
2022-09-17T00:25:33.054Z,10.04
2022-09-17T00:28:02.457Z,10.00
2022-09-17T00:30:31.857Z,10.02
2022-09-17T00:33:01.318Z,10.01
2022-09-17T00:35:31.024Z,9.97
2022-09-17T00:38:03.048Z,9.95
2022-09-17T00:40:32.567Z,9.91
2022-09-17T00:43:02.233Z,9.88
2022-09-17T00:45:32.559Z,9.84
2022-09-17T00:48:03.446Z,9.80
2022-09-17T00:50:36.108Z,9.79
2022-09-17T00:53:10.806Z,9.76
2022-09-17T00:55:42.396Z,9.75
2022-09-17T00:58:14.206Z,9.71
2022-09-17T01:00:43.924Z,9.71
2022-09-17T01:03:13.346Z,9.69
2022-09-17T01:05:48.826Z,9.67
2022-09-17T01:08:26.692Z,9.65
2022-09-17T01:11:10.733Z,9.61
2022-09-17T01:13:51.173Z,9.59
2022-09-17T01:16:23.513Z,9.62
2022-09-17T01:19:03.046Z,9.54
2022-09-17T01:21:40.902Z,9.54
2022-09-17T01:24:45.830Z,9.56
2022-09-17T01:27:45.991Z,9.52
2022-09-17T01:30:33.157Z,9.50
2022-09-17T01:33:08.091Z,9.49
2022-09-17T01:35:43.254Z,9.52
2022-09-17T01:38:15.931Z,9.48
2022-09-17T01:40:52.265Z,9.46
2022-09-17T01:43:25.801Z,9.46
2022-09-17T01:46:01.131Z,9.43
2022-09-17T01:48:34.859Z,9.47
2022-09-17T01:51:08.681Z,9.50
2022-09-17T01:53:41.333Z,9.50
2022-09-17T01:56:12.216Z,9.52
2022-09-17T01:58:46.026Z,9.55
2022-09-17T02:01:19.929Z,9.51
2022-09-17T02:03:52.794Z,9.56
2022-09-17T02:06:24.770Z,9.53
2022-09-17T02:08:56.614Z,9.46
2022-09-17T02:11:26.401Z,9.48
2022-09-17T02:13:58.723Z,9.48
2022-09-17T02:16:32.836Z,9.49
2022-09-17T02:19:06.509Z,9.49
2022-09-17T02:21:39.535Z,9.48
2022-09-17T02:24:11.914Z,9.41
2022-09-17T02:26:45.422Z,9.44
2022-09-17T02:29:17.079Z,9.47
2022-09-17T02:31:49.135Z,9.47
2022-09-17T02:34:18.629Z,9.46
2022-09-17T02:36:48.010Z,9.50
2022-09-17T02:39:17.625Z,9.48
2022-09-17T02:41:52.797Z,9.52
2022-09-17T02:44:29.601Z,9.50
2022-09-17T02:47:15.454Z,9.57
2022-09-17T02:50:01.473Z,9.49
2022-09-17T02:52:35.777Z,9.47
2022-09-17T02:55:12.884Z,9.46
2022-09-17T02:57:46.877Z,9.46
2022-09-17T03:00:18.014Z,9.50
2022-09-17T03:02:53.053Z,9.48
2022-09-17T03:05:24.064Z,9.54
2022-09-17T03:07:53.585Z,9.47
2022-09-17T03:10:22.973Z,9.47
2022-09-17T03:12:52.400Z,9.47
2022-09-17T03:15:21.855Z,9.48
2022-09-17T03:17:53.918Z,9.44
2022-09-17T03:20:23.395Z,9.47
2022-09-17T03:22:54.457Z,9.46
2022-09-17T03:25:24.034Z,9.53
2022-09-17T03:27:53.492Z,9.54
2022-09-17T03:30:22.888Z,9.55
2022-09-17T03:32:54.842Z,9.53
2022-09-17T03:35:24.234Z,9.47
2022-09-17T03:37:53.650Z,9.52
2022-09-17T03:40:23.101Z,9.54
2022-09-17T03:42:52.529Z,9.51
2022-09-17T03:45:21.969Z,9.53
2022-09-17T03:47:53.930Z,9.51
2022-09-17T03:50:23.294Z,9.48
2022-09-17T03:52:52.900Z,9.46
2022-09-17T03:55:23.150Z,9.49
2022-09-17T03:57:52.645Z,9.51
2022-09-17T04:00:23.561Z,9.49
2022-09-17T04:02:55.627Z,9.55
2022-09-17T04:05:25.117Z,9.57
2022-09-17T04:07:54.507Z,9.55
2022-09-17T04:10:23.875Z,9.48
2022-09-17T04:12:53.302Z,9.50
2022-09-17T04:15:22.770Z,9.47
2022-09-17T04:17:55.640Z,9.48
2022-09-17T04:20:25.014Z,9.43
2022-09-17T04:22:54.775Z,9.42
2022-09-17T04:25:24.217Z,9.40
2022-09-17T04:27:53.658Z,9.42
2022-09-17T04:30:23.254Z,9.42
2022-09-17T04:32:55.209Z,9.38
2022-09-17T04:35:24.610Z,9.42
2022-09-17T04:37:57.615Z,9.40
2022-09-17T04:40:27.985Z,9.41
2022-09-17T04:42:59.429Z,9.38
2022-09-17T04:45:29.607Z,9.30
2022-09-17T04:48:01.903Z,9.31
2022-09-17T04:50:31.452Z,9.21
2022-09-17T04:53:00.938Z,9.17
2022-09-17T04:55:31.243Z,9.16
2022-09-17T04:58:00.766Z,9.16
2022-09-17T05:00:30.379Z,9.11
2022-09-17T05:03:02.351Z,9.10
2022-09-17T05:05:32.018Z,9.09
2022-09-17T05:08:01.500Z,9.02
2022-09-17T05:10:31.023Z,9.05
2022-09-17T05:13:00.598Z,9.01
2022-09-17T05:15:30.158Z,8.99
2022-09-17T05:18:02.107Z,8.98
2022-09-17T05:20:31.496Z,8.90
2022-09-17T05:23:00.914Z,8.93
2022-09-17T05:25:31.002Z,8.95
2022-09-17T05:28:01.295Z,9.01
2022-09-17T05:30:30.669Z,9.02
2022-09-17T05:33:07.529Z,8.98
2022-09-17T05:35:37.932Z,9.05
2022-09-17T05:38:08.525Z,9.01
2022-09-17T05:40:38.434Z,8.99
2022-09-17T05:43:09.259Z,9.02
2022-09-17T05:45:39.210Z,9.02
2022-09-17T05:48:15.553Z,9.04
2022-09-17T05:50:44.978Z,9.05
2022-09-17T05:53:15.507Z,9.03
2022-09-17T05:55:45.079Z,9.01
2022-09-17T05:58:15.262Z,9.02
2022-09-17T06:00:48.791Z,9.02
2022-09-17T06:03:22.683Z,9.11
2022-09-17T06:05:58.159Z,9.02
2022-09-17T06:08:29.040Z,8.96
2022-09-17T06:11:02.267Z,9.00
2022-09-17T06:13:31.948Z,8.95
2022-09-17T06:16:01.472Z,8.98
2022-09-17T06:18:34.324Z,9.00
2022-09-17T06:21:05.583Z,9.07
2022-09-17T06:23:37.268Z,9.00
2022-09-17T06:26:08.113Z,9.02
2022-09-17T06:28:41.529Z,9.18
2022-09-17T06:31:12.490Z,9.12
2022-09-17T06:33:44.608Z,9.08
2022-09-17T06:36:14.916Z,9.00
2022-09-17T06:38:44.858Z,9.03
2022-09-17T06:41:16.907Z,8.99
2022-09-17T06:43:46.418Z,8.98
2022-09-17T06:46:15.869Z,9.06
2022-09-17T06:48:47.866Z,8.98
2022-09-17T06:51:17.338Z,8.98
2022-09-17T06:53:46.826Z,9.02
2022-09-17T06:56:16.230Z,9.01
2022-09-17T06:58:45.645Z,9.15
2022-09-17T07:01:16.003Z,9.14
2022-09-17T07:03:49.736Z,9.24
2022-09-17T07:06:19.138Z,9.31
2022-09-17T07:08:48.534Z,9.31
2022-09-17T07:11:18.725Z,9.34
2022-09-17T07:13:48.369Z,9.48
2022-09-17T07:16:17.814Z,9.55
2022-09-17T07:18:49.848Z,9.57
2022-09-17T07:21:19.210Z,9.58
2022-09-17T07:23:48.672Z,9.54
2022-09-17T07:26:19.133Z,9.53
2022-09-17T07:28:49.114Z,9.45
2022-09-17T07:31:18.686Z,9.46
2022-09-17T07:33:50.678Z,9.46
2022-09-17T07:36:20.335Z,9.47
2022-09-17T07:38:49.865Z,9.44
2022-09-17T07:41:20.235Z,9.47
2022-09-17T07:43:49.621Z,9.54
2022-09-17T07:46:20.941Z,9.51
2022-09-17T07:48:54.132Z,9.53
2022-09-17T07:51:24.830Z,9.65
2022-09-17T07:53:54.630Z,9.73
2022-09-17T07:56:24.436Z,9.67
2022-09-17T07:58:54.511Z,9.72
2022-09-17T08:01:23.939Z,9.70
2022-09-17T08:03:57.304Z,9.76
2022-09-17T08:06:28.634Z,9.87
2022-09-17T08:08:58.443Z,9.89
2022-09-17T08:11:54.428Z,9.93
2022-09-17T08:14:19.482Z,9.99
2022-09-17T08:16:49.018Z,10.05
2022-09-17T08:19:22.263Z,10.13
2022-09-17T08:21:52.191Z,10.16
2022-09-17T08:24:21.549Z,10.19
2022-09-17T08:26:50.959Z,10.27
2022-09-17T08:29:20.335Z,10.33
2022-09-17T08:31:50.144Z,10.40
2022-09-17T08:34:22.174Z,10.43
2022-09-17T08:36:51.567Z,10.53
2022-09-17T08:39:21.030Z,10.69
2022-09-17T08:41:58.273Z,10.57
2022-09-17T08:44:29.796Z,10.48
2022-09-17T08:47:06.307Z,10.44
2022-09-17T08:49:43.330Z,10.55
2022-09-17T08:52:30.130Z,10.55
2022-09-17T08:55:04.267Z,10.64
2022-09-17T08:57:40.558Z,10.62
2022-09-17T09:00:13.530Z,10.48
2022-09-17T09:02:52.627Z,10.11
2022-09-17T09:05:27.323Z,10.15
2022-09-17T09:08:00.663Z,10.07
2022-09-17T09:10:32.675Z,10.00
2022-09-17T09:13:03.153Z,10.00
2022-09-17T09:15:38.450Z,9.90
2022-09-17T09:18:18.763Z,9.79
2022-09-17T09:20:55.625Z,9.66
2022-09-17T09:23:31.729Z,9.35
2022-09-17T09:26:08.374Z,9.20
2022-09-17T09:28:56.633Z,9.27
2022-09-17T09:31:56.473Z,9.42
2022-09-17T09:34:26.497Z,9.39
2022-09-17T09:37:05.233Z,9.46
2022-09-17T09:39:41.436Z,9.37
2022-09-17T09:42:19.283Z,9.57
2022-09-17T09:44:48.741Z,9.74
2022-09-17T09:47:28.954Z,9.79
2022-09-17T09:50:08.272Z,9.86
2022-09-17T09:52:51.841Z,10.16
2022-09-17T09:55:33.863Z,10.24
2022-09-17T09:58:09.675Z,9.91
2022-09-17T10:00:42.791Z,9.93
2022-09-17T10:03:16.142Z,10.11
2022-09-17T10:05:56.036Z,10.25
2022-09-17T10:08:28.557Z,10.47
2022-09-17T10:11:03.763Z,10.56
2022-09-17T10:13:35.687Z,10.30
2022-09-17T10:16:20.455Z,10.28
2022-09-17T10:18:51.314Z,10.35
2022-09-17T10:21:25.023Z,10.48
2022-09-17T10:23:57.413Z,10.45
2022-09-17T10:26:28.820Z,10.56
2022-09-17T10:29:00.808Z,10.61
2022-09-17T10:31:30.987Z,10.54
2022-09-17T10:34:01.357Z,10.44
2022-09-17T10:36:44.958Z,10.26
2022-09-17T10:39:34.078Z,10.40
2022-09-17T10:42:04.950Z,10.36
2022-09-17T10:44:35.773Z,10.33
2022-09-17T10:47:08.312Z,10.16
2022-09-17T10:49:41.426Z,9.99
2022-09-17T10:52:27.433Z,10.01
2022-09-17T10:55:17.642Z,10.05
2022-09-17T10:57:56.949Z,10.18
2022-09-17T11:00:26.816Z,10.20
2022-09-17T11:03:28.642Z,10.26
2022-09-17T11:06:14.276Z,10.28
2022-09-17T11:08:51.471Z,10.50
2022-09-17T11:11:35.010Z,10.46
2022-09-17T11:14:12.166Z,10.44
2022-09-17T11:16:44.463Z,10.35
2022-09-17T11:19:24.978Z,10.46
2022-09-17T11:21:55.961Z,10.65
2022-09-17T11:24:48.851Z,10.78
2022-09-17T11:27:30.017Z,10.89
2022-09-17T11:30:07.541Z,10.76
2022-09-17T11:32:56.961Z,10.90
2022-09-17T11:35:29.234Z,11.12
2022-09-17T11:38:01.880Z,11.12
2022-09-17T11:40:37.935Z,11.33
2022-09-17T11:43:17.598Z,10.75
2022-09-17T11:45:54.961Z,10.91
2022-09-17T11:48:27.231Z,10.78
2022-09-17T11:51:00.297Z,10.71
2022-09-17T11:53:34.658Z,10.63
2022-09-17T11:56:06.839Z,10.71
2022-09-17T11:58:42.661Z,10.84
2022-09-17T12:01:15.919Z,10.70
2022-09-17T12:03:48.034Z,10.81
2022-09-17T12:06:19.500Z,10.84
2022-09-17T12:08:56.210Z,10.76
2022-09-17T12:11:29.604Z,11.05
2022-09-17T12:14:06.001Z,11.17
2022-09-17T12:16:39.622Z,11.29
2022-09-17T12:19:15.449Z,11.24
2022-09-17T12:21:48.679Z,11.55
2022-09-17T12:24:23.608Z,11.64
2022-09-17T12:27:08.989Z,11.90
2022-09-17T12:30:07.021Z,12.14
2022-09-17T12:33:05.916Z,12.13
2022-09-17T12:36:04.374Z,11.92
2022-09-17T12:38:58.423Z,12.42
2022-09-17T12:41:38.069Z,12.46
2022-09-17T12:44:19.489Z,12.53
2022-09-17T12:47:02.730Z,13.08
2022-09-17T12:49:43.823Z,13.60
2022-09-17T12:52:17.315Z,13.04
2022-09-17T12:55:11.121Z,12.79
2022-09-17T12:57:45.179Z,12.78
2022-09-17T13:00:15.920Z,12.71
2022-09-17T13:02:51.570Z,12.49
2022-09-17T13:05:36.292Z,13.28
2022-09-17T13:08:18.519Z,13.49
2022-09-17T13:10:59.054Z,13.52
2022-09-17T13:13:36.652Z,13.84
2022-09-17T13:16:14.385Z,14.17
2022-09-17T13:19:14.941Z,14.49
2022-09-17T13:21:46.798Z,13.97
2022-09-17T13:24:20.266Z,13.97
2022-09-17T13:26:49.700Z,14.57
2022-09-17T13:29:48.981Z,14.81
2022-09-17T13:32:49.202Z,14.23
2022-09-17T13:35:52.521Z,13.89
2022-09-17T13:38:23.980Z,14.08
2022-09-17T13:40:54.100Z,14.35
2022-09-17T13:43:27.929Z,14.92
2022-09-17T13:46:12.990Z,14.85
2022-09-17T13:48:54.742Z,14.66
2022-09-17T13:51:59.805Z,14.16
2022-09-17T13:54:41.425Z,13.40
2022-09-17T13:57:16.098Z,12.88
2022-09-17T13:59:57.080Z,12.46
2022-09-17T14:02:35.293Z,12.22
2022-09-17T14:05:24.717Z,12.21
2022-09-17T14:07:56.115Z,12.17
2022-09-17T14:10:43.275Z,12.07
2022-09-17T14:13:44.964Z,11.80
2022-09-17T14:16:37.180Z,11.87
2022-09-17T14:19:32.272Z,12.05
2022-09-17T14:22:04.397Z,12.62
2022-09-17T14:24:49.006Z,12.79
2022-09-17T14:27:40.010Z,12.89
2022-09-17T14:30:17.274Z,12.52
2022-09-17T14:32:55.731Z,12.11
2022-09-17T14:35:27.469Z,11.85
2022-09-17T14:38:00.039Z,11.78
2022-09-17T14:40:29.990Z,11.54
2022-09-17T14:43:02.239Z,12.01
2022-09-17T14:45:34.699Z,11.88
2022-09-17T14:48:32.694Z,11.89
2022-09-17T14:51:29.022Z,11.92
2022-09-17T14:54:26.269Z,12.05
2022-09-17T14:56:58.226Z,11.57
2022-09-17T14:59:41.852Z,11.84
2022-09-17T15:02:33.477Z,11.74
2022-09-17T15:05:04.206Z,11.75
2022-09-17T15:07:33.601Z,11.73
2022-09-17T15:10:11.582Z,11.87
2022-09-17T15:12:42.353Z,11.91
2022-09-17T15:15:20.237Z,11.87
2022-09-17T15:17:50.637Z,12.16
2022-09-17T15:20:23.238Z,11.98
2022-09-17T15:22:57.766Z,11.69
2022-09-17T15:25:28.659Z,11.80
2022-09-17T15:28:00.178Z,11.89
2022-09-17T15:30:32.242Z,11.64
2022-09-17T15:33:02.358Z,11.55
2022-09-17T15:35:32.364Z,11.42
2022-09-17T15:38:22.123Z,11.39
2022-09-17T15:40:52.502Z,11.62
2022-09-17T15:43:28.913Z,11.88
2022-09-17T15:46:01.554Z,11.65
2022-09-17T15:48:40.720Z,11.71
2022-09-17T15:51:26.294Z,11.83
2022-09-17T15:53:56.817Z,11.79
2022-09-17T15:56:27.932Z,11.54
2022-09-17T15:59:01.485Z,11.80
2022-09-17T16:01:57.720Z,11.68
2022-09-17T16:04:33.873Z,11.58
2022-09-17T16:07:06.270Z,11.78
2022-09-17T16:09:45.865Z,11.83
2022-09-17T16:12:17.213Z,11.81
2022-09-17T16:14:51.166Z,12.06
2022-09-17T16:17:33.156Z,11.85
2022-09-17T16:20:06.405Z,12.06
2022-09-17T16:22:35.977Z,12.13
2022-09-17T16:25:05.462Z,11.90
2022-09-17T16:27:45.998Z,11.56
2022-09-17T16:30:18.275Z,11.67
2022-09-17T16:32:50.626Z,11.57
2022-09-17T16:35:21.322Z,11.59
2022-09-17T16:37:51.566Z,11.40
2022-09-17T16:40:21.551Z,11.44
2022-09-17T16:42:51.272Z,11.48
2022-09-17T16:45:25.388Z,11.58
2022-09-17T16:48:00.401Z,11.74
2022-09-17T16:50:29.881Z,11.73
2022-09-17T16:53:02.864Z,11.59
2022-09-17T16:55:34.404Z,11.47
2022-09-17T16:58:03.753Z,11.26
2022-09-17T17:00:33.279Z,11.17
2022-09-17T17:03:06.860Z,11.24
2022-09-17T17:05:39.515Z,11.25
2022-09-17T17:08:09.450Z,11.29
2022-09-17T17:10:40.625Z,11.27
2022-09-17T17:13:10.047Z,11.32
2022-09-17T17:15:39.462Z,11.24
2022-09-17T17:18:11.466Z,11.14
2022-09-17T17:20:40.846Z,11.15
2022-09-17T17:23:10.245Z,11.14
2022-09-17T17:25:39.636Z,11.20
2022-09-17T17:28:09.046Z,11.11
2022-09-17T17:30:38.508Z,11.11
2022-09-17T17:33:07.958Z,11.08
2022-09-17T17:35:41.570Z,11.00
2022-09-17T17:38:11.301Z,11.15
2022-09-17T17:40:40.808Z,11.02
2022-09-17T17:43:10.258Z,10.93
2022-09-17T17:45:39.661Z,11.01
2022-09-17T17:48:09.146Z,10.93
2022-09-17T17:50:41.109Z,10.85
2022-09-17T17:53:10.511Z,10.78
2022-09-17T17:55:39.873Z,10.78
2022-09-17T17:58:09.278Z,10.71
2022-09-17T18:00:38.629Z,10.69
2022-09-17T18:03:08.304Z,10.71
2022-09-17T18:05:37.710Z,10.62
2022-09-17T18:08:09.706Z,10.62
2022-09-17T18:10:39.109Z,10.66
2022-09-17T18:13:08.466Z,10.60
2022-09-17T18:15:37.906Z,10.51
2022-09-17T18:18:07.501Z,10.55
2022-09-17T18:20:36.885Z,10.53
2022-09-17T18:23:08.866Z,10.49
2022-09-17T18:25:38.269Z,10.34
2022-09-17T18:28:07.744Z,10.40
2022-09-17T18:30:38.990Z,10.25
2022-09-17T18:33:08.346Z,10.17
2022-09-17T18:35:38.865Z,10.20
2022-09-17T18:38:10.802Z,10.17
2022-09-17T18:40:40.315Z,10.10
2022-09-17T18:43:10.111Z,10.11
2022-09-17T18:45:39.492Z,10.14
2022-09-17T18:48:09.389Z,10.08
2022-09-17T18:50:39.686Z,10.08
2022-09-17T18:53:11.647Z,10.10
2022-09-17T18:55:41.026Z,10.02
2022-09-17T18:58:10.409Z,10.06
2022-09-17T19:00:42.765Z,10.06
2022-09-17T19:03:12.181Z,10.04
2022-09-17T19:05:41.566Z,10.06
2022-09-17T19:08:15.114Z,10.01
2022-09-17T19:10:44.486Z,10.02
2022-09-17T19:13:13.843Z,10.02
2022-09-17T19:15:43.293Z,10.04
2022-09-17T19:18:12.695Z,10.03
2022-09-17T19:20:42.093Z,10.02
2022-09-17T19:23:14.170Z,9.97
2022-09-17T19:25:43.590Z,10.03
2022-09-17T19:28:12.966Z,10.06
2022-09-17T19:30:42.382Z,10.07
2022-09-17T19:33:11.825Z,10.47
2022-09-17T19:35:41.225Z,10.62
2022-09-17T19:38:13.407Z,10.44
2022-09-17T19:40:45.540Z,10.30
2022-09-17T19:43:15.074Z,10.23
2022-09-17T19:45:44.431Z,10.62
2022-09-17T19:48:13.793Z,10.34
2022-09-17T19:50:53.029Z,10.22
2022-09-17T19:53:22.456Z,10.13
2022-09-17T19:55:54.460Z,10.02
2022-09-17T19:58:24.227Z,9.84
2022-09-17T20:00:58.901Z,9.82
2022-09-17T20:03:29.574Z,9.77
2022-09-17T20:06:02.471Z,9.73
2022-09-17T20:08:31.857Z,9.71
2022-09-17T20:11:10.081Z,9.74
2022-09-17T20:13:39.565Z,9.71
2022-09-17T20:16:10.560Z,9.70
2022-09-17T20:18:40.160Z,9.69
2022-09-17T20:21:10.761Z,9.66
2022-09-17T20:23:40.237Z,9.65
2022-09-17T20:26:12.729Z,9.63
2022-09-17T20:28:42.333Z,9.59
2022-09-17T20:31:14.687Z,9.54
2022-09-17T20:33:44.373Z,9.50
2022-09-17T20:36:15.367Z,9.48
2022-09-17T20:41:37.025Z,9.41
2022-09-17T20:44:06.593Z,9.39
2022-09-17T20:46:36.224Z,9.34
2022-09-17T20:49:05.878Z,9.34
2022-09-17T20:51:35.422Z,9.38
2022-09-17T20:54:04.876Z,9.31
2022-09-17T20:56:37.605Z,9.33
2022-09-17T20:59:14.389Z,9.35
2022-09-17T21:01:45.104Z,9.38
2022-09-17T21:04:17.007Z,9.39
2022-09-17T21:06:47.030Z,9.41
2022-09-17T21:09:18.229Z,9.41
2022-09-17T21:11:51.677Z,9.43
2022-09-17T21:14:21.136Z,9.44
2022-09-17T21:16:50.605Z,9.45
2022-09-17T21:19:20.774Z,9.45
2022-09-17T21:21:51.730Z,9.51
2022-09-17T21:24:21.125Z,9.52
2022-09-17T21:26:54.190Z,9.50
2022-09-17T21:29:23.632Z,9.48
2022-09-17T21:31:54.315Z,9.48
2022-09-17T21:34:23.753Z,9.54
2022-09-17T21:36:53.122Z,9.50
2022-09-17T21:39:22.509Z,9.52
2022-09-17T21:41:54.674Z,9.54
2022-09-17T21:44:24.046Z,9.53
2022-09-17T21:46:56.952Z,9.54
2022-09-17T21:49:26.549Z,9.54
2022-09-17T21:51:55.923Z,9.56
2022-09-17T21:54:25.327Z,9.56
2022-09-17T21:56:59.262Z,9.55
2022-09-17T21:59:29.863Z,9.56
2022-09-17T22:01:59.321Z,9.51
2022-09-17T22:04:28.776Z,9.54
2022-09-17T22:06:59.237Z,9.58
2022-09-17T22:09:30.245Z,9.58
2022-09-17T22:12:02.831Z,9.64
2022-09-17T22:14:32.323Z,9.64
2022-09-17T22:17:01.703Z,9.65
2022-09-17T22:19:31.149Z,9.66
2022-09-17T22:22:00.621Z,9.68
2022-09-17T22:24:30.425Z,9.68
2022-09-17T22:27:02.432Z,9.66
2022-09-17T22:29:32.228Z,9.66
2022-09-17T22:32:01.598Z,9.55
2022-09-17T22:34:31.030Z,9.52
2022-09-17T22:37:00.593Z,9.45
2022-09-17T22:39:30.009Z,9.49
2022-09-17T22:42:02.017Z,9.48
2022-09-17T22:44:31.396Z,9.43
2022-09-17T22:47:00.773Z,9.40
2022-09-17T22:49:30.237Z,9.28
2022-09-17T22:51:59.631Z,9.21
2022-09-17T22:54:29.050Z,9.13
2022-09-17T22:56:58.466Z,9.12
2022-09-17T22:59:30.438Z,9.10
2022-09-17T23:01:59.865Z,9.08
2022-09-17T23:04:29.345Z,9.00
2022-09-17T23:06:58.707Z,8.97
2022-09-17T23:09:28.101Z,8.94
2022-09-17T23:11:57.506Z,8.91
2022-09-17T23:14:26.926Z,8.93
2022-09-17T23:16:58.912Z,8.89
2022-09-17T23:19:29.133Z,8.89
2022-09-17T23:21:58.527Z,8.90
2022-09-17T23:24:27.895Z,8.93
2022-09-17T23:26:57.270Z,8.90
2022-09-17T23:29:26.667Z,8.96
2022-09-17T23:31:56.034Z,9.02
2022-09-17T23:34:27.990Z,9.00
2022-09-17T23:36:57.351Z,8.99
2022-09-17T23:39:29.564Z,8.97
2022-09-17T23:41:59.574Z,8.97
2022-09-17T23:44:29.026Z,9.03
2022-09-17T23:46:58.420Z,8.97
2022-09-17T23:49:30.518Z,9.04
2022-09-17T23:51:59.874Z,9.03
2022-09-17T23:54:29.234Z,9.03
2022-09-17T23:56:58.613Z,9.01
2022-09-17T23:59:28.089Z,9.03
